Time;durP1;ratioP1;P1;durP2;ratioP2;P2;SDS_P1;SDS_P2;PMS_P1;PMS_P2;Temp;Humidity;BMP_temperature;BMP_pressure;BME280_temperature;BME280_humidity;BME280_pressure;Samples;Min_cycle;Max_cycle;Signal;HPM_P1;HPM_P2
2022/03/22 00:00:00;;;;;;;4.40;4.10;;;;;;;;;;5098179;28;20583;-53
2022/03/22 00:02:28;;;;;;;4.38;4.07;;;;;;;;;;5098084;28;20290;-53
2022/03/22 00:04:56;;;;;;;4.43;4.10;;;;;;;;;;5098436;28;20685;-53
2022/03/22 00:07:23;;;;;;;4.30;4.00;;;;;;;;;;5097480;28;20299;-53
2022/03/22 00:09:51;;;;;;;4.38;4.00;;;;;;;;;;5098449;28;20524;-53
2022/03/22 00:12:20;;;;;;;4.30;4.00;;;;;;;;;;5097347;28;20295;-53
2022/03/22 00:14:47;;;;;;;4.03;3.72;;;;;;;;;;5098945;28;20230;-53
2022/03/22 00:17:14;;;;;;;3.80;3.50;;;;;;;;;;5097552;28;20214;-54
2022/03/22 00:19:42;;;;;;;4.43;4.05;;;;;;;;;;5097289;28;20282;-53
2022/03/22 00:22:10;;;;;;;4.32;3.95;;;;;;;;;;5096130;28;20561;-53
2022/03/22 00:24:38;;;;;;;4.78;4.40;;;;;;;;;;5097771;28;20293;-53
2022/03/22 00:27:05;;;;;;;4.25;3.95;;;;;;;;;;5097250;28;20598;-53
2022/03/22 00:29:34;;;;;;;4.30;4.00;;;;;;;;;;5096858;28;20666;-53
2022/03/22 00:32:02;;;;;;;4.80;4.40;;;;;;;;;;5097706;28;20334;-53
2022/03/22 00:34:30;;;;;;;4.40;4.10;;;;;;;;;;5097631;28;20531;-53
2022/03/22 00:36:58;;;;;;;4.85;4.45;;;;;;;;;;5095907;28;20234;-53
2022/03/22 00:39:27;;;;;;;4.57;4.18;;;;;;;;;;5096130;28;20204;-53
2022/03/22 00:41:54;;;;;;;4.72;4.32;;;;;;;;;;5079233;28;20196;-53
2022/03/22 00:44:22;;;;;;;4.45;4.05;;;;;;;;;;5077538;28;20295;-53
2022/03/22 00:46:51;;;;;;;4.70;4.30;;;;;;;;;;5077150;28;20662;-53
2022/03/22 00:49:18;;;;;;;4.35;3.95;;;;;;;;;;5090871;28;20294;-53
2022/03/22 00:51:47;;;;;;;4.80;4.40;;;;;;;;;;5097866;28;20615;-53
2022/03/22 00:54:14;;;;;;;4.82;4.43;;;;;;;;;;5098004;28;20225;-53
2022/03/22 00:56:42;;;;;;;4.50;4.10;;;;;;;;;;5097705;28;20302;-54
2022/03/22 01:01:56;;;;;;;4.90;4.50;;;;;;;;;;5097889;28;20593;-53
2022/03/22 01:04:24;;;;;;;4.82;4.43;;;;;;;;;;5096564;28;20654;-53
2022/03/22 01:06:52;;;;;;;4.72;4.32;;;;;;;;;;5098374;28;20211;-53
2022/03/22 01:09:20;;;;;;;4.63;4.32;;;;;;;;;;5097716;28;20204;-53
2022/03/22 01:11:47;;;;;;;4.70;4.40;;;;;;;;;;5097900;28;20327;-53
2022/03/22 01:14:15;;;;;;;4.80;4.40;;;;;;;;;;5097884;28;20214;-53
2022/03/22 01:16:43;;;;;;;4.50;4.20;;;;;;;;;;5097066;28;20261;-53
2022/03/22 01:19:12;;;;;;;4.90;4.50;;;;;;;;;;5097692;28;20299;-53
2022/03/22 01:21:39;;;;;;;4.85;4.45;;;;;;;;;;5097643;28;20199;-53
2022/03/22 01:24:07;;;;;;;4.93;4.53;;;;;;;;;;5097968;28;20290;-53
2022/03/22 01:26:36;;;;;;;5.57;5.07;;;;;;;;;;5097034;28;20212;-53
2022/03/22 01:29:04;;;;;;;4.82;4.43;;;;;;;;;;5097596;28;20211;-53
2022/03/22 01:31:31;;;;;;;4.90;4.50;;;;;;;;;;5097216;28;20230;-53
2022/03/22 01:33:58;;;;;;;5.10;4.70;;;;;;;;;;5097113;28;20290;-53
2022/03/22 01:36:31;;;;;;;4.80;4.40;;;;;;;;;;5097513;28;20307;-53
2022/03/22 01:38:59;;;;;;;4.75;4.38;;;;;;;;;;5097484;28;20203;-53
2022/03/22 01:41:26;;;;;;;4.57;4.28;;;;;;;;;;5097673;28;20298;-53
2022/03/22 01:43:54;;;;;;;4.90;4.50;;;;;;;;;;5097021;28;20283;-53
2022/03/22 01:46:23;;;;;;;5.03;4.63;;;;;;;;;;5096673;28;20249;-53
2022/03/22 01:48:51;;;;;;;4.78;4.38;;;;;;;;;;5097437;28;20227;-53
2022/03/22 01:51:20;;;;;;;4.63;4.28;;;;;;;;;;5096932;28;20231;-53
2022/03/22 01:53:50;;;;;;;4.18;3.88;;;;;;;;;;5097520;28;20298;-53
2022/03/22 01:56:18;;;;;;;4.63;4.25;;;;;;;;;;5096839;28;20206;-53
2022/03/22 01:58:47;;;;;;;5.22;4.82;;;;;;;;;;5096964;28;20239;-53
2022/03/22 02:06:47;;;;;;;5.18;4.78;;;;;;;;;;5096028;28;20249;-53
2022/03/22 02:09:16;;;;;;;4.70;4.30;;;;;;;;;;5097056;28;20207;-53
2022/03/22 02:11:43;;;;;;;4.70;4.30;;;;;;;;;;5096419;28;20231;-53
2022/03/22 02:14:11;;;;;;;4.65;4.25;;;;;;;;;;5097098;28;20682;-53
2022/03/22 02:16:38;;;;;;;4.82;4.50;;;;;;;;;;5096847;28;20307;-53
2022/03/22 02:19:09;;;;;;;4.80;4.40;;;;;;;;;;5097258;28;20674;-53
2022/03/22 02:21:38;;;;;;;4.80;4.40;;;;;;;;;;5096017;28;20207;-53
2022/03/22 02:24:07;;;;;;;5.07;4.68;;;;;;;;;;5097294;28;20207;-53
2022/03/22 02:26:36;;;;;;;4.13;3.83;;;;;;;;;;5096182;28;20214;-53
2022/03/22 02:29:04;;;;;;;4.95;4.55;;;;;;;;;;5097231;28;20488;-53
2022/03/22 02:31:32;;;;;;;4.88;4.50;;;;;;;;;;5096458;28;20227;-53
2022/03/22 02:34:00;;;;;;;4.78;4.38;;;;;;;;;;5096582;28;20290;-53
2022/03/22 02:36:27;;;;;;;4.55;4.25;;;;;;;;;;5096413;28;20200;-53
2022/03/22 02:38:55;;;;;;;5.07;4.68;;;;;;;;;;5096547;28;20239;-53
2022/03/22 02:41:25;;;;;;;4.90;4.50;;;;;;;;;;5096275;28;20294;-53
2022/03/22 02:43:53;;;;;;;4.90;4.50;;;;;;;;;;5096597;28;20216;-53
2022/03/22 02:46:20;;;;;;;4.45;4.15;;;;;;;;;;5096494;28;20302;-53
2022/03/22 02:48:48;;;;;;;4.75;4.35;;;;;;;;;;5096982;28;20546;-53
2022/03/22 02:51:16;;;;;;;4.70;4.30;;;;;;;;;;5095994;28;20310;-53
2022/03/22 02:53:43;;;;;;;4.90;4.50;;;;;;;;;;5096790;28;20586;-53
2022/03/22 02:56:11;;;;;;;4.70;4.40;;;;;;;;;;5097243;28;20203;-53
2022/03/22 02:58:40;;;;;;;4.75;4.35;;;;;;;;;;5095880;28;20215;-53
2022/03/22 03:01:08;;;;;;;4.65;4.25;;;;;;;;;;5096357;28;20298;-53
2022/03/22 03:03:36;;;;;;;4.47;4.18;;;;;;;;;;5095881;28;20562;-53
2022/03/22 03:06:03;;;;;;;4.32;4.03;;;;;;;;;;5095646;28;20200;-53
2022/03/22 03:08:31;;;;;;;4.30;4.00;;;;;;;;;;5095797;28;20311;-53
2022/03/22 03:10:59;;;;;;;4.60;4.20;;;;;;;;;;5096292;28;20223;-53
2022/03/22 03:14:38;;;;;;;4.63;4.22;;;;;;;;;;5096538;28;20303;-53
2022/03/22 03:16:16;;;;;;;4.45;4.15;;;;;;;;;;5095708;28;20203;-53
2022/03/22 03:18:43;;;;;;;4.20;3.90;;;;;;;;;;5096108;28;20212;-53
2022/03/22 03:21:11;;;;;;;4.78;4.38;;;;;;;;;;5095479;28;20196;-53
2022/03/22 03:23:38;;;;;;;4.35;4.05;;;;;;;;;;5096105;28;20610;-53
2022/03/22 03:26:06;;;;;;;4.43;4.13;;;;;;;;;;5096405;28;20242;-53
2022/03/22 03:28:34;;;;;;;4.30;4.00;;;;;;;;;;5098969;28;20214;-53
2022/03/22 03:31:01;;;;;;;4.30;4.00;;;;;;;;;;5100024;28;20326;-53
2022/03/22 03:33:30;;;;;;;4.72;4.35;;;;;;;;;;5099488;28;20287;-53
2022/03/22 03:35:58;;;;;;;4.32;4.03;;;;;;;;;;5099414;28;20218;-53
2022/03/22 03:38:25;;;;;;;4.75;4.35;;;;;;;;;;5098874;28;20219;-53
2022/03/22 03:43:38;;;;;;;4.30;4.00;;;;;;;;;;5099090;28;20191;-53
2022/03/22 03:48:53;;;;;;;4.57;4.18;;;;;;;;;;5078322;28;20290;-53
2022/03/22 03:51:20;;;;;;;4.40;4.03;;;;;;;;;;5078687;28;20231;-53
2022/03/22 03:53:48;;;;;;;4.22;3.92;;;;;;;;;;5078751;28;20215;-53
2022/03/22 03:56:15;;;;;;;4.78;4.30;;;;;;;;;;5078615;28;20295;-53
2022/03/22 03:58:43;;;;;;;4.38;3.97;;;;;;;;;;5079285;28;20553;-53
2022/03/22 04:01:10;;;;;;;4.43;4.10;;;;;;;;;;5078078;28;20667;-53
2022/03/22 04:03:39;;;;;;;4.53;4.13;;;;;;;;;;5078968;28;20204;-53
2022/03/22 04:06:08;;;;;;;4.38;4.07;;;;;;;;;;5078931;28;20214;-53
2022/03/22 04:08:35;;;;;;;4.25;3.92;;;;;;;;;;5077635;28;20231;-53
2022/03/22 04:11:03;;;;;;;4.47;4.07;;;;;;;;;;5077762;28;20200;-53
2022/03/22 04:13:31;;;;;;;4.22;3.83;;;;;;;;;;5077802;28;20294;-53
2022/03/22 04:15:58;;;;;;;4.13;3.83;;;;;;;;;;5078099;28;20268;-53
2022/03/22 04:18:25;;;;;;;4.80;4.40;;;;;;;;;;5078812;28;20287;-53
2022/03/22 04:20:53;;;;;;;4.22;3.92;;;;;;;;;;5078316;28;20203;-53
2022/03/22 04:23:22;;;;;;;4.13;3.83;;;;;;;;;;5078142;28;20298;-53
2022/03/22 04:25:49;;;;;;;4.78;4.38;;;;;;;;;;5078582;28;20211;-53
2022/03/22 04:33:47;;;;;;;4.47;4.13;;;;;;;;;;5078444;28;20191;-53
2022/03/22 04:36:14;;;;;;;4.18;3.88;;;;;;;;;;5078005;28;20218;-53
2022/03/22 04:38:44;;;;;;;4.57;4.18;;;;;;;;;;5077838;28;20207;-53
2022/03/22 04:41:11;;;;;;;4.65;4.35;;;;;;;;;;5077744;28;20295;-53
2022/03/22 04:43:39;;;;;;;4.40;4.10;;;;;;;;;;5077531;28;20618;-53
2022/03/22 04:46:07;;;;;;;4.10;3.80;;;;;;;;;;5076947;28;20299;-53
2022/03/22 04:48:36;;;;;;;4.30;4.00;;;;;;;;;;5096241;28;20235;-53
2022/03/22 04:56:47;;;;;;;3.97;3.67;;;;;;;;;;5097480;28;20202;-53
2022/03/22 04:59:15;;;;;;;4.35;4.05;;;;;;;;;;5098313;28;20210;-53
2022/03/22 05:01:43;;;;;;;4.30;4.00;;;;;;;;;;5097318;28;20199;-53
2022/03/22 05:04:11;;;;;;;4.55;4.20;;;;;;;;;;5097706;28;20207;-53
2022/03/22 05:06:39;;;;;;;4.28;3.95;;;;;;;;;;5098454;28;20218;-53
2022/03/22 05:09:10;;;;;;;4.43;4.03;;;;;;;;;;5097232;28;20409;-53
2022/03/22 05:11:38;;;;;;;4.10;3.80;;;;;;;;;;5097491;28;20234;-53
2022/03/22 05:14:05;;;;;;;4.50;4.20;;;;;;;;;;5097385;28;20659;-53
2022/03/22 05:16:35;;;;;;;4.65;4.25;;;;;;;;;;5096937;28;20210;-53
2022/03/22 05:19:04;;;;;;;4.43;4.03;;;;;;;;;;5096833;28;20238;-53
2022/03/22 05:21:31;;;;;;;4.50;4.20;;;;;;;;;;5096333;28;20230;-53
2022/03/22 05:23:59;;;;;;;4.25;3.95;;;;;;;;;;5096113;28;20290;-53
2022/03/22 05:26:28;;;;;;;4.20;3.90;;;;;;;;;;5096555;28;20218;-53
2022/03/22 05:28:56;;;;;;;4.50;4.10;;;;;;;;;;5097035;28;20204;-53
2022/03/22 05:31:23;;;;;;;4.35;4.03;;;;;;;;;;5096469;28;20200;-53
2022/03/22 05:33:52;;;;;;;4.53;4.13;;;;;;;;;;5095982;28;20294;-53
2022/03/22 05:36:20;;;;;;;4.93;4.25;;;;;;;;;;5095770;28;20215;-53
2022/03/22 05:38:47;;;;;;;12.52;4.30;;;;;;;;;;5095517;28;20196;-53
2022/03/22 05:41:15;;;;;;;4.32;3.92;;;;;;;;;;5095950;28;20354;-53
2022/03/22 05:43:43;;;;;;;4.28;3.60;;;;;;;;;;5095740;28;20200;-53
2022/03/22 05:46:11;;;;;;;4.53;3.72;;;;;;;;;;5096094;28;20204;-53
2022/03/22 05:48:39;;;;;;;4.32;4.00;;;;;;;;;;5094871;28;20334;-53
2022/03/22 05:51:06;;;;;;;4.13;3.72;;;;;;;;;;5084036;28;20208;-53
2022/03/22 05:53:34;;;;;;;4.32;3.92;;;;;;;;;;5072711;28;20570;-53
2022/03/22 05:56:01;;;;;;;3.92;3.53;;;;;;;;;;5073623;28;20303;-53
2022/03/22 05:58:29;;;;;;;5.13;3.85;;;;;;;;;;5072884;28;20291;-53
2022/03/22 06:00:58;;;;;;;4.45;3.92;;;;;;;;;;5073638;28;20302;-53
2022/03/22 06:03:25;;;;;;;3.95;3.55;;;;;;;;;;5072171;28;20197;-53
2022/03/22 06:05:53;;;;;;;4.15;3.65;;;;;;;;;;5073459;28;20208;-53
2022/03/22 06:08:20;;;;;;;4.45;3.95;;;;;;;;;;5070894;28;20302;-53
2022/03/22 06:10:49;;;;;;;4.28;3.80;;;;;;;;;;5071924;28;20216;-53
2022/03/22 06:13:16;;;;;;;3.90;3.60;;;;;;;;;;5069742;28;20245;-53
2022/03/22 06:15:47;;;;;;;4.00;3.70;;;;;;;;;;5072661;28;20286;-53
2022/03/22 06:18:20;;;;;;;4.13;3.75;;;;;;;;;;5086212;28;20206;-53
2022/03/22 06:20:47;;;;;;;3.75;3.45;;;;;;;;;;5090909;28;20313;-52
2022/03/22 06:23:15;;;;;;;3.83;3.42;;;;;;;;;;5090850;28;20199;-53
2022/03/22 06:25:44;;;;;;;3.90;3.60;;;;;;;;;;5091803;28;20690;-53
2022/03/22 06:28:14;;;;;;;4.10;3.65;;;;;;;;;;5093177;28;20530;-53
2022/03/22 06:30:42;;;;;;;4.35;4.03;;;;;;;;;;5091226;28;20597;-53
2022/03/22 06:33:11;;;;;;;4.07;3.47;;;;;;;;;;5091815;28;20403;-53
2022/03/22 06:35:40;;;;;;;3.50;3.20;;;;;;;;;;5092058;28;20262;-53
2022/03/22 06:38:07;;;;;;;3.83;3.53;;;;;;;;;;5092946;28;20196;-52
2022/03/22 06:40:37;;;;;;;3.75;3.42;;;;;;;;;;5092960;28;20298;-53
2022/03/22 06:43:06;;;;;;;3.95;3.35;;;;;;;;;;5093409;28;20485;-52
2022/03/22 06:45:33;;;;;;;4.30;3.90;;;;;;;;;;5093116;28;20602;-53
2022/03/22 06:48:01;;;;;;;4.10;3.80;;;;;;;;;;5091959;28;20246;-52
2022/03/22 06:50:28;;;;;;;3.88;3.58;;;;;;;;;;5091994;28;20467;-53
2022/03/22 06:52:57;;;;;;;3.63;3.33;;;;;;;;;;5091070;28;20229;-52
2022/03/22 06:55:25;;;;;;;3.83;3.53;;;;;;;;;;5090931;28;20307;-52
2022/03/22 06:57:52;;;;;;;4.03;3.63;;;;;;;;;;5091317;28;20230;-52
2022/03/22 07:00:21;;;;;;;3.78;3.45;;;;;;;;;;5090870;28;20367;-52
2022/03/22 07:02:48;;;;;;;3.75;3.42;;;;;;;;;;5094231;28;20540;-52
2022/03/22 07:05:17;;;;;;;3.80;3.50;;;;;;;;;;5095506;28;20203;-52
2022/03/22 07:07:45;;;;;;;3.75;3.35;;;;;;;;;;5094900;28;20286;-53
2022/03/22 07:10:14;;;;;;;3.53;3.28;;;;;;;;;;5094226;28;20210;-53
2022/03/22 07:12:52;;;;;;;4.38;3.60;;;;;;;;;;5093984;28;20216;-53
2022/03/22 07:15:20;;;;;;;3.50;3.20;;;;;;;;;;5096082;28;20512;-53
2022/03/22 07:17:48;;;;;;;3.65;3.35;;;;;;;;;;5094915;28;20210;-53
2022/03/22 07:20:16;;;;;;;3.95;3.55;;;;;;;;;;5095603;28;20469;-53
2022/03/22 07:22:44;;;;;;;3.97;3.53;;;;;;;;;;5094848;28;20657;-53
2022/03/22 07:25:11;;;;;;;4.10;3.70;;;;;;;;;;5095268;28;20200;-53
2022/03/22 07:27:42;;;;;;;3.88;3.53;;;;;;;;;;5095678;28;20388;-53
2022/03/22 07:30:11;;;;;;;3.85;3.55;;;;;;;;;;5095739;28;20235;-53
2022/03/22 07:32:39;;;;;;;3.70;3.40;;;;;;;;;;5094982;28;20242;-53
2022/03/22 07:35:07;;;;;;;3.85;3.55;;;;;;;;;;5096135;28;20294;-53
2022/03/22 07:37:35;;;;;;;3.72;3.42;;;;;;;;;;5094280;28;20294;-53
2022/03/22 07:40:03;;;;;;;3.75;3.45;;;;;;;;;;5092764;28;20583;-53
2022/03/22 07:42:30;;;;;;;4.07;3.38;;;;;;;;;;5095027;28;20413;-53
2022/03/22 07:45:00;;;;;;;3.90;3.50;;;;;;;;;;5095302;28;20636;-53
2022/03/22 07:47:28;;;;;;;3.60;3.30;;;;;;;;;;5092915;28;20330;-53
2022/03/22 07:55:26;;;;;;;3.75;3.45;;;;;;;;;;5094501;28;20214;-53
2022/03/22 07:57:54;;;;;;;3.65;3.35;;;;;;;;;;5094968;28;20485;-53
2022/03/22 08:00:23;;;;;;;4.10;3.70;;;;;;;;;;5091599;28;20441;-53
2022/03/22 08:02:57;;;;;;;3.80;3.50;;;;;;;;;;5074643;28;20279;-53
2022/03/22 08:05:25;;;;;;;3.90;3.60;;;;;;;;;;5073975;28;20196;-53
2022/03/22 08:07:53;;;;;;;4.10;3.20;;;;;;;;;;5088684;28;20298;-53
2022/03/22 08:10:21;;;;;;;3.47;3.17;;;;;;;;;;5095323;28;20211;-53
2022/03/22 08:12:48;;;;;;;3.50;3.20;;;;;;;;;;5093507;28;20234;-53
2022/03/22 08:15:17;;;;;;;3.70;3.40;;;;;;;;;;5094711;28;20451;-53
2022/03/22 08:17:46;;;;;;;3.72;3.40;;;;;;;;;;5095653;28;20252;-53
2022/03/22 08:20:14;;;;;;;3.53;3.22;;;;;;;;;;5094047;28;20569;-53
2022/03/22 08:22:50;;;;;;;3.83;3.28;;;;;;;;;;5094261;28;20456;-53
2022/03/22 08:25:24;;;;;;;3.80;3.50;;;;;;;;;;5093930;28;20207;-53
2022/03/22 08:27:51;;;;;;;4.07;3.78;;;;;;;;;;5094837;28;20310;-53
2022/03/22 08:30:21;;;;;;;3.70;3.40;;;;;;;;;;5093692;28;20203;-53
2022/03/22 08:32:50;;;;;;;4.03;3.40;;;;;;;;;;5094235;28;20235;-53
2022/03/22 08:35:18;;;;;;;3.60;3.13;;;;;;;;;;5094292;28;20208;-53
2022/03/22 08:37:45;;;;;;;3.65;3.35;;;;;;;;;;5092682;28;20314;-53
2022/03/22 08:40:15;;;;;;;3.78;3.47;;;;;;;;;;5093381;28;20587;-53
2022/03/22 08:42:44;;;;;;;3.50;3.20;;;;;;;;;;5094530;28;20222;-53
2022/03/22 08:45:13;;;;;;;4.30;3.90;;;;;;;;;;5093405;28;20483;-53
2022/03/22 08:47:40;;;;;;;3.65;3.35;;;;;;;;;;5093900;28;20224;-53
2022/03/22 08:50:11;;;;;;;3.50;3.20;;;;;;;;;;5093323;28;20203;-53
2022/03/22 08:52:39;;;;;;;3.55;3.20;;;;;;;;;;5093594;28;20374;-53
2022/03/22 08:55:07;;;;;;;3.90;3.50;;;;;;;;;;5093477;28;20470;-53
2022/03/22 08:57:35;;;;;;;4.03;3.63;;;;;;;;;;5094514;28;20211;-53
2022/03/22 09:00:05;;;;;;;4.22;3.83;;;;;;;;;;5093306;28;20204;-53
2022/03/22 09:02:33;;;;;;;4.22;3.55;;;;;;;;;;5092768;28;20195;-53
2022/03/22 09:07:47;;;;;;;4.15;3.35;;;;;;;;;;5092310;28;20349;-53
2022/03/22 09:10:15;;;;;;;4.45;3.40;;;;;;;;;;5092875;28;20203;-53
2022/03/22 09:12:43;;;;;;;4.18;3.78;;;;;;;;;;5092841;28;20213;-53
2022/03/22 09:15:11;;;;;;;4.40;4.00;;;;;;;;;;5095014;28;20204;-53
2022/03/22 09:17:39;;;;;;;4.50;3.63;;;;;;;;;;5094541;28;20207;-53
2022/03/22 09:20:07;;;;;;;3.72;3.42;;;;;;;;;;5094758;28;20210;-53
2022/03/22 09:22:35;;;;;;;4.32;3.92;;;;;;;;;;5095226;28;20207;-53
2022/03/22 09:25:04;;;;;;;4.53;3.63;;;;;;;;;;5091555;28;20459;-53
2022/03/22 09:27:31;;;;;;;4.97;4.05;;;;;;;;;;5093204;28;20524;-53
2022/03/22 09:29:59;;;;;;;3.60;3.30;;;;;;;;;;5091059;28;20196;-53
2022/03/22 09:32:26;;;;;;;4.93;3.80;;;;;;;;;;5092260;28;20465;-53
2022/03/22 09:34:54;;;;;;;4.18;3.53;;;;;;;;;;5092055;28;20241;-53
2022/03/22 09:37:21;;;;;;;5.13;3.83;;;;;;;;;;5092311;28;20310;-53
2022/03/22 09:39:49;;;;;;;4.30;3.90;;;;;;;;;;5093418;28;20222;-53
2022/03/22 09:42:18;;;;;;;4.57;3.85;;;;;;;;;;5092304;28;20298;-53
2022/03/22 09:44:49;;;;;;;3.92;3.63;;;;;;;;;;5091023;28;20204;-53
2022/03/22 09:47:17;;;;;;;4.25;3.90;;;;;;;;;;5089747;28;20242;-53
2022/03/22 09:49:44;;;;;;;4.00;3.60;;;;;;;;;;5090335;28;20206;-53
2022/03/22 09:52:14;;;;;;;4.32;3.92;;;;;;;;;;5092369;28;20203;-53
2022/03/22 09:54:42;;;;;;;3.67;3.15;;;;;;;;;;5092679;28;20238;-53
2022/03/22 09:57:10;;;;;;;3.88;3.58;;;;;;;;;;5091736;28;20199;-53
2022/03/22 09:59:39;;;;;;;4.00;3.70;;;;;;;;;;5093399;28;20475;-53
2022/03/22 10:02:07;;;;;;;3.95;3.60;;;;;;;;;;5092105;28;20282;-53
2022/03/22 10:04:38;;;;;;;4.38;3.97;;;;;;;;;;5091916;28;20295;-53
2022/03/22 10:07:07;;;;;;;5.13;4.63;;;;;;;;;;5092921;28;20218;-53
2022/03/22 10:09:38;;;;;;;5.20;4.70;;;;;;;;;;5092719;28;20211;-53
2022/03/22 10:12:07;;;;;;;5.10;4.43;;;;;;;;;;5093189;28;20250;-53
2022/03/22 10:14:36;;;;;;;5.82;5.28;;;;;;;;;;5092077;28;20254;-53
2022/03/22 10:17:11;;;;;;;6.47;5.78;;;;;;;;;;5090832;28;20348;-53
2022/03/22 10:19:43;;;;;;;5.28;4.78;;;;;;;;;;5090828;28;20604;-53
2022/03/22 10:22:11;;;;;;;5.22;4.72;;;;;;;;;;5090133;28;20207;-53
2022/03/22 10:24:48;;;;;;;5.28;4.78;;;;;;;;;;5090986;28;20195;-53
2022/03/22 10:27:25;;;;;;;6.63;5.70;;;;;;;;;;5091589;28;20621;-53
2022/03/22 10:29:53;;;;;;;6.05;5.20;;;;;;;;;;5090702;28;20291;-53
2022/03/22 10:32:32;;;;;;;5.45;4.95;;;;;;;;;;5092974;28;20444;-53
2022/03/22 10:35:10;;;;;;;5.85;5.28;;;;;;;;;;5091509;28;20507;-53
2022/03/22 10:37:38;;;;;;;5.95;5.30;;;;;;;;;;5094703;28;20407;-53
2022/03/22 10:40:20;;;;;;;5.18;4.68;;;;;;;;;;5092012;28;20207;-53
2022/03/22 10:42:48;;;;;;;7.10;5.15;;;;;;;;;;5084502;28;20189;-53
2022/03/22 10:45:15;;;;;;;5.68;5.18;;;;;;;;;;5083911;28;20728;-53
2022/03/22 10:47:44;;;;;;;6.47;5.47;;;;;;;;;;5076175;28;20236;-53
2022/03/22 10:50:12;;;;;;;6.72;6.03;;;;;;;;;;5073960;28;20597;-53
2022/03/22 10:52:48;;;;;;;6.93;5.55;;;;;;;;;;5091318;28;20202;-53
2022/03/22 10:55:19;;;;;;;8.23;6.28;;;;;;;;;;5093210;28;20223;-53
2022/03/22 10:57:49;;;;;;;8.70;7.47;;;;;;;;;;5094504;28;20298;-53
2022/03/22 11:00:17;;;;;;;10.32;8.20;;;;;;;;;;5095064;28;20230;-53
2022/03/22 11:02:48;;;;;;;13.55;9.20;;;;;;;;;;5094714;28;20295;-53
2022/03/22 11:05:17;;;;;;;12.60;10.02;;;;;;;;;;5094944;28;20226;-53
2022/03/22 11:07:45;;;;;;;16.67;10.32;;;;;;;;;;5095434;28;20207;-53
2022/03/22 11:10:13;;;;;;;15.93;11.07;;;;;;;;;;5094771;28;20260;-53
2022/03/22 11:12:41;;;;;;;16.15;11.40;;;;;;;;;;5094764;28;20653;-53
2022/03/22 11:15:10;;;;;;;17.13;12.00;;;;;;;;;;5093137;28;20611;-53
2022/03/22 11:17:38;;;;;;;17.60;11.60;;;;;;;;;;5092788;28;20290;-53
2022/03/22 11:20:09;;;;;;;18.80;12.10;;;;;;;;;;5093571;28;20206;-53
2022/03/22 11:22:36;;;;;;;18.80;12.27;;;;;;;;;;5094310;28;20298;-53
2022/03/22 11:25:08;;;;;;;17.80;12.07;;;;;;;;;;5094237;28;20204;-53
2022/03/22 11:27:37;;;;;;;17.55;12.13;;;;;;;;;;5093643;28;20210;-53
2022/03/22 11:30:05;;;;;;;19.08;12.27;;;;;;;;;;5093617;28;20211;-53
2022/03/22 11:35:24;;;;;;;15.85;11.48;;;;;;;;;;5093391;28;20222;-53
2022/03/22 11:38:01;;;;;;;17.20;11.73;;;;;;;;;;5094538;28;20207;-53
2022/03/22 11:43:15;;;;;;;17.38;11.70;;;;;;;;;;5093241;28;20460;-53
2022/03/22 11:45:49;;;;;;;15.52;11.45;;;;;;;;;;5091916;28;20206;-53
2022/03/22 11:48:17;;;;;;;15.88;10.35;;;;;;;;;;5092606;28;20505;-53
2022/03/22 11:50:47;;;;;;;17.63;11.35;;;;;;;;;;5092502;28;20214;-53
2022/03/22 11:53:21;;;;;;;15.35;11.05;;;;;;;;;;5093789;28;20491;-53
2022/03/22 11:55:52;;;;;;;14.50;10.23;;;;;;;;;;5093247;28;20203;-53
2022/03/22 11:58:20;;;;;;;13.98;11.02;;;;;;;;;;5092504;28;20199;-53
2022/03/22 12:00:51;;;;;;;14.25;10.45;;;;;;;;;;5093717;28;20641;-53
2022/03/22 12:03:22;;;;;;;14.68;10.27;;;;;;;;;;5092702;28;20199;-53
2022/03/22 12:05:52;;;;;;;14.75;10.65;;;;;;;;;;5092839;28;20214;-53
2022/03/22 12:08:19;;;;;;;12.82;10.13;;;;;;;;;;5092467;28;20517;-53
2022/03/22 12:10:47;;;;;;;12.80;9.65;;;;;;;;;;5092447;28;20206;-53
2022/03/22 12:13:15;;;;;;;14.35;10.27;;;;;;;;;;5091533;28;20204;-53
2022/03/22 12:15:43;;;;;;;12.48;9.52;;;;;;;;;;5092422;28;20322;-53
2022/03/22 12:18:11;;;;;;;11.60;9.18;;;;;;;;;;5092684;28;20330;-53
2022/03/22 12:20:38;;;;;;;12.77;9.73;;;;;;;;;;5092594;28;20206;-53
2022/03/22 12:23:08;;;;;;;12.63;9.23;;;;;;;;;;5092547;28;20195;-53
2022/03/22 12:25:36;;;;;;;11.88;8.68;;;;;;;;;;5092766;28;20436;-53
2022/03/22 12:28:06;;;;;;;12.98;8.93;;;;;;;;;;5092222;28;20219;-53
2022/03/22 12:30:34;;;;;;;10.50;8.60;;;;;;;;;;5092574;28;20203;-53
2022/03/22 12:33:03;;;;;;;12.20;8.68;;;;;;;;;;5092896;28;20199;-53
2022/03/22 12:35:31;;;;;;;13.80;9.02;;;;;;;;;;5092275;28;20492;-53
2022/03/22 12:37:59;;;;;;;12.90;9.00;;;;;;;;;;5091974;28;20313;-53
2022/03/22 12:40:29;;;;;;;10.98;8.18;;;;;;;;;;5091146;28;20347;-53
2022/03/22 12:42:57;;;;;;;11.55;8.07;;;;;;;;;;5090871;28;20206;-53
2022/03/22 12:45:26;;;;;;;10.75;8.18;;;;;;;;;;5091112;28;20199;-53
2022/03/22 12:47:56;;;;;;;9.80;8.10;;;;;;;;;;5092085;28;20322;-53
2022/03/22 12:50:23;;;;;;;9.68;7.93;;;;;;;;;;5091558;28;20260;-53
2022/03/22 12:52:51;;;;;;;10.63;8.00;;;;;;;;;;5089501;28;20539;-53
2022/03/22 12:55:20;;;;;;;9.43;7.65;;;;;;;;;;5091819;28;20223;-53
2022/03/22 12:57:51;;;;;;;9.45;7.38;;;;;;;;;;5091991;28;20203;-53
2022/03/22 13:00:28;;;;;;;10.38;7.15;;;;;;;;;;5092096;28;20500;-53
2022/03/22 13:02:57;;;;;;;10.95;7.20;;;;;;;;;;5091215;28;20310;-53
2022/03/22 13:05:26;;;;;;;7.45;6.65;;;;;;;;;;5092223;28;20196;-53
2022/03/22 13:07:53;;;;;;;8.10;7.00;;;;;;;;;;5091824;28;20560;-53
2022/03/22 13:13:16;;;;;;;7.72;5.95;;;;;;;;;;5092319;28;20333;-53
2022/03/22 13:15:47;;;;;;;8.25;6.80;;;;;;;;;;5089698;28;20234;-53
2022/03/22 13:18:14;;;;;;;7.72;6.20;;;;;;;;;;5090912;28;20318;-53
2022/03/22 13:20:42;;;;;;;6.38;5.70;;;;;;;;;;5088717;28;20302;-53
2022/03/22 13:23:14;;;;;;;6.95;6.00;;;;;;;;;;5090248;28;20210;-53
2022/03/22 13:25:43;;;;;;;7.20;5.88;;;;;;;;;;5089954;28;20415;-53
2022/03/22 13:28:13;;;;;;;7.38;6.30;;;;;;;;;;5090477;28;20222;-53
2022/03/22 13:30:43;;;;;;;6.43;5.53;;;;;;;;;;5090688;28;20246;-53
2022/03/22 13:33:12;;;;;;;8.10;5.72;;;;;;;;;;5090432;28;20533;-53
2022/03/22 13:35:40;;;;;;;6.43;5.57;;;;;;;;;;5091101;28;20500;-53
2022/03/22 13:38:08;;;;;;;6.82;5.32;;;;;;;;;;5090799;28;20199;-53
2022/03/22 13:40:36;;;;;;;6.25;5.47;;;;;;;;;;5089393;28;20294;-53
2022/03/22 13:43:06;;;;;;;7.53;5.63;;;;;;;;;;5091673;28;20206;-53
2022/03/22 13:45:36;;;;;;;6.10;5.47;;;;;;;;;;5091664;28;20200;-53
2022/03/22 13:48:08;;;;;;;5.95;5.35;;;;;;;;;;5091807;28;20300;-53
2022/03/22 13:50:35;;;;;;;6.75;5.38;;;;;;;;;;5089001;28;20231;-53
2022/03/22 13:53:05;;;;;;;5.68;5.18;;;;;;;;;;5086971;28;20304;-53
2022/03/22 13:55:32;;;;;;;5.80;5.15;;;;;;;;;;5088853;28;20288;-53
2022/03/22 13:58:01;;;;;;;5.75;4.93;;;;;;;;;;5089453;28;20574;-53
2022/03/22 14:00:33;;;;;;;5.93;5.00;;;;;;;;;;5090068;28;20261;-53
2022/03/22 14:03:01;;;;;;;5.63;4.82;;;;;;;;;;5089470;28;20214;-53
2022/03/22 14:05:29;;;;;;;6.00;4.85;;;;;;;;;;5091253;28;20298;-53
2022/03/22 14:07:57;;;;;;;5.18;4.55;;;;;;;;;;5090325;28;20203;-53
2022/03/22 14:10:25;;;;;;;5.82;5.07;;;;;;;;;;5089209;28;20218;-53
2022/03/22 14:12:52;;;;;;;5.85;4.50;;;;;;;;;;5090487;28;20203;-53
2022/03/22 14:15:20;;;;;;;5.85;5.13;;;;;;;;;;5092559;28;20318;-53
2022/03/22 14:17:47;;;;;;;6.30;4.70;;;;;;;;;;5091718;28;20303;-53
2022/03/22 14:20:18;;;;;;;4.53;3.97;;;;;;;;;;5090643;28;20231;-53
2022/03/22 14:22:46;;;;;;;4.55;3.80;;;;;;;;;;5090290;28;20203;-53
2022/03/22 14:25:14;;;;;;;5.00;4.47;;;;;;;;;;5090828;28;20207;-53
2022/03/22 14:27:42;;;;;;;5.53;4.43;;;;;;;;;;5090350;28;20302;-53
2022/03/22 14:30:14;;;;;;;4.72;4.00;;;;;;;;;;5089522;28;20199;-53
2022/03/22 14:32:42;;;;;;;5.68;4.05;;;;;;;;;;5088342;28;20199;-53
2022/03/22 14:37:56;;;;;;;5.13;4.40;;;;;;;;;;5088667;28;20443;-53
2022/03/22 14:40:24;;;;;;;4.90;4.18;;;;;;;;;;5089521;28;20310;-53
2022/03/22 14:42:52;;;;;;;4.38;3.90;;;;;;;;;;5090863;28;20215;-53
2022/03/22 14:45:19;;;;;;;4.70;4.30;;;;;;;;;;5093365;28;20191;-53
2022/03/22 14:47:49;;;;;;;4.90;4.13;;;;;;;;;;5091659;28;20232;-53
2022/03/22 14:50:17;;;;;;;4.22;3.83;;;;;;;;;;5090032;28;20229;-53
2022/03/22 14:55:31;;;;;;;4.60;4.00;;;;;;;;;;5090013;28;20226;-53
2022/03/22 15:00:44;;;;;;;4.57;4.05;;;;;;;;;;5090361;28;20202;-53
2022/03/22 15:03:11;;;;;;;4.38;3.72;;;;;;;;;;5088665;28;20299;-53
2022/03/22 15:05:42;;;;;;;4.10;3.70;;;;;;;;;;5088838;28;20587;-53
2022/03/22 15:08:11;;;;;;;3.83;3.40;;;;;;;;;;5089746;28;20215;-53
2022/03/22 15:10:40;;;;;;;3.67;3.35;;;;;;;;;;5089058;28;20208;-53
2022/03/22 15:13:08;;;;;;;3.90;3.50;;;;;;;;;;5088720;28;20209;-53
2022/03/22 15:15:36;;;;;;;4.22;3.83;;;;;;;;;;5089303;28;20241;-53
2022/03/22 15:18:07;;;;;;;3.78;3.40;;;;;;;;;;5088699;28;20196;-53
2022/03/22 15:20:35;;;;;;;4.18;3.50;;;;;;;;;;5090317;28;20547;-53
2022/03/22 15:23:04;;;;;;;3.90;3.50;;;;;;;;;;5090303;28;20200;-53
2022/03/22 15:25:31;;;;;;;4.70;3.83;;;;;;;;;;5093421;28;20260;-53
2022/03/22 15:28:00;;;;;;;4.03;3.30;;;;;;;;;;5092536;28;20200;-53
2022/03/22 15:30:28;;;;;;;4.05;3.65;;;;;;;;;;5092110;28;20203;-53
2022/03/22 15:32:55;;;;;;;5.80;3.78;;;;;;;;;;5092771;28;20286;-53
2022/03/22 15:35:25;;;;;;;4.65;3.90;;;;;;;;;;5093105;28;20275;-53
2022/03/22 15:37:53;;;;;;;3.60;3.30;;;;;;;;;;5093123;28;20215;-53